createdAt,value
2023-02-14T00:00:43.647Z,21.22
2023-02-14T00:01:47.785Z,21.24
2023-02-14T00:02:51.977Z,21.22
2023-02-14T00:03:56.320Z,21.22
2023-02-14T00:05:00.484Z,21.21
2023-02-14T00:06:04.602Z,21.21
2023-02-14T00:07:08.736Z,21.21
2023-02-14T00:08:12.909Z,21.18
2023-02-14T00:09:17.050Z,21.2
2023-02-14T00:10:21.226Z,21.19
2023-02-14T00:11:25.369Z,21.19
2023-02-14T00:12:29.517Z,21.16
2023-02-14T00:13:33.728Z,21.18
2023-02-14T00:14:37.844Z,21.17
2023-02-14T00:15:42.035Z,21.16
2023-02-14T00:16:46.342Z,21.16
2023-02-14T00:17:50.473Z,21.15
2023-02-14T00:18:54.600Z,21.12
2023-02-14T00:19:58.749Z,21.13
2023-02-14T00:21:02.887Z,21.11
2023-02-14T00:22:07.018Z,21.11
2023-02-14T00:23:11.166Z,21.13
2023-02-14T00:24:15.302Z,21.12
2023-02-14T00:25:19.447Z,21.13
2023-02-14T00:26:23.604Z,21.12
2023-02-14T00:27:27.731Z,21.12
2023-02-14T00:28:31.883Z,21.11
2023-02-14T00:29:36.033Z,21.1
2023-02-14T00:30:40.187Z,21.08
2023-02-14T00:31:44.434Z,21.09
2023-02-14T00:32:48.771Z,21.08
2023-02-14T00:33:52.947Z,21.06
2023-02-14T00:34:57.098Z,21.07
2023-02-14T00:36:01.222Z,21.07
2023-02-14T00:37:05.366Z,21.07
2023-02-14T00:38:09.521Z,21.07
2023-02-14T00:39:13.644Z,21.07
2023-02-14T00:40:17.833Z,21.04
2023-02-14T00:41:21.945Z,21.06
2023-02-14T00:42:26.072Z,21.04
2023-02-14T00:43:30.242Z,21.03
2023-02-14T00:44:34.367Z,21.02
2023-02-14T00:45:38.637Z,21.03
2023-02-14T00:46:42.970Z,21.03
2023-02-14T00:47:47.110Z,21.01
2023-02-14T00:48:51.314Z,20.99
2023-02-14T00:49:55.471Z,21.01
2023-02-14T00:51:00.239Z,21
2023-02-14T00:52:04.709Z,21
2023-02-14T00:53:08.837Z,21
2023-02-14T00:54:12.977Z,20.97
2023-02-14T00:55:17.119Z,20.98
2023-02-14T00:56:21.288Z,20.98
2023-02-14T00:57:25.424Z,20.97
2023-02-14T00:58:29.592Z,20.95
2023-02-14T00:59:33.742Z,20.97
2023-02-14T01:00:37.923Z,20.97
2023-02-14T01:01:42.247Z,20.96
2023-02-14T01:02:46.477Z,20.93
2023-02-14T01:03:50.778Z,20.94
2023-02-14T01:04:54.936Z,20.94
2023-02-14T01:05:59.098Z,20.93
2023-02-14T01:07:03.277Z,20.91
2023-02-14T01:08:07.419Z,20.91
2023-02-14T01:09:11.586Z,20.93
2023-02-14T01:10:15.733Z,20.92
2023-02-14T01:11:19.885Z,20.92
2023-02-14T01:12:24.026Z,20.9
2023-02-14T01:13:28.163Z,20.89
2023-02-14T01:14:32.311Z,20.9
2023-02-14T01:15:36.492Z,20.91
2023-02-14T01:16:40.704Z,20.91
2023-02-14T01:17:45.087Z,20.89
2023-02-14T01:18:49.317Z,20.88
2023-02-14T01:19:53.527Z,20.88
2023-02-14T01:20:58.091Z,20.88
2023-02-14T01:22:03.151Z,20.87
2023-02-14T01:23:07.344Z,20.87
2023-02-14T01:24:11.508Z,20.87
2023-02-14T01:25:15.655Z,20.87
2023-02-14T01:26:19.798Z,20.85
2023-02-14T01:27:23.908Z,20.83
2023-02-14T01:28:28.345Z,20.84
2023-02-14T01:29:32.495Z,20.85
2023-02-14T01:30:36.740Z,20.84
2023-02-14T01:31:41.135Z,20.82
2023-02-14T01:32:45.797Z,20.83
2023-02-14T01:33:49.978Z,20.83
2023-02-14T01:34:54.157Z,20.83
2023-02-14T01:35:58.288Z,20.83
2023-02-14T01:37:02.436Z,20.82
2023-02-14T01:38:06.575Z,20.82
2023-02-14T01:39:10.732Z,20.79
2023-02-14T01:40:14.970Z,20.8
2023-02-14T01:41:19.149Z,20.8
2023-02-14T01:42:23.281Z,20.79
2023-02-14T01:43:27.424Z,20.8
2023-02-14T01:44:31.568Z,20.77
2023-02-14T01:45:35.758Z,20.78
2023-02-14T01:46:40.048Z,20.79
2023-02-14T01:47:44.192Z,20.78
2023-02-14T01:48:48.404Z,20.77
2023-02-14T01:49:52.599Z,20.75
2023-02-14T01:50:57.009Z,20.77
2023-02-14T01:52:04.082Z,20.76
2023-02-14T01:53:08.416Z,20.73
2023-02-14T01:54:12.550Z,20.73
2023-02-14T01:55:16.707Z,20.74
2023-02-14T01:56:20.837Z,20.74
2023-02-14T01:57:24.992Z,20.72
2023-02-14T01:58:29.141Z,20.72
2023-02-14T01:59:33.248Z,20.74
2023-02-14T02:00:37.409Z,20.74
2023-02-14T02:01:41.648Z,20.73
2023-02-14T02:02:45.866Z,20.73
2023-02-14T02:03:50.081Z,20.72
2023-02-14T02:04:54.252Z,20.7
2023-02-14T02:05:58.486Z,20.72
2023-02-14T02:07:02.609Z,20.72
2023-02-14T02:08:06.783Z,20.72
2023-02-14T02:09:10.898Z,20.69
2023-02-14T02:10:15.032Z,20.69
2023-02-14T02:11:19.195Z,20.69
2023-02-14T02:12:23.304Z,20.69
2023-02-14T02:13:27.428Z,20.67
2023-02-14T02:14:31.592Z,20.68
2023-02-14T02:15:35.755Z,20.65
2023-02-14T02:16:40.056Z,20.67
2023-02-14T02:17:44.433Z,20.67
2023-02-14T02:18:48.593Z,20.66
2023-02-14T02:19:52.764Z,20.66
2023-02-14T02:20:57.039Z,20.66
2023-02-14T02:22:02.107Z,20.66
2023-02-14T02:23:06.229Z,20.65
2023-02-14T02:24:10.404Z,20.65
2023-02-14T02:25:14.527Z,20.66
2023-02-14T02:26:18.665Z,20.64
2023-02-14T02:27:22.794Z,20.65
2023-02-14T02:28:29.145Z,20.64
2023-02-14T02:29:33.265Z,20.64
2023-02-14T02:30:37.561Z,20.6
2023-02-14T02:31:42.765Z,20.63
2023-02-14T02:32:47.504Z,20.62
2023-02-14T02:33:51.650Z,20.6
2023-02-14T02:34:55.792Z,20.61
2023-02-14T02:35:59.915Z,20.61
2023-02-14T02:37:04.048Z,20.59
2023-02-14T02:38:08.237Z,20.58
2023-02-14T02:39:12.359Z,20.6
2023-02-14T02:40:16.498Z,20.57
2023-02-14T02:41:20.636Z,20.59
2023-02-14T02:42:24.756Z,20.56
2023-02-14T02:43:28.946Z,20.55
2023-02-14T02:44:33.085Z,20.55
2023-02-14T02:45:37.223Z,20.58
2023-02-14T02:46:41.415Z,20.54
2023-02-14T02:47:45.550Z,20.56
2023-02-14T02:48:49.700Z,20.56
2023-02-14T02:49:53.853Z,20.56
2023-02-14T02:50:58.216Z,20.56
2023-02-14T02:52:03.354Z,20.56
2023-02-14T02:53:07.505Z,20.56
2023-02-14T02:54:11.686Z,20.56
2023-02-14T02:55:15.857Z,20.55
2023-02-14T02:56:20.011Z,20.55
2023-02-14T02:57:24.122Z,20.55
2023-02-14T02:58:28.286Z,20.54
2023-02-14T02:59:32.431Z,20.54
2023-02-14T03:00:36.553Z,20.54
2023-02-14T03:01:40.713Z,20.54
2023-02-14T03:02:45.091Z,20.51
2023-02-14T03:03:49.275Z,20.53
2023-02-14T03:04:53.555Z,20.53
2023-02-14T03:05:58.101Z,20.51
2023-02-14T03:07:02.220Z,20.52
2023-02-14T03:08:06.364Z,20.54
2023-02-14T03:09:10.475Z,20.55
2023-02-14T03:10:14.697Z,20.56
2023-02-14T03:11:18.891Z,20.58
2023-02-14T03:12:23.029Z,20.58
2023-02-14T03:13:27.198Z,20.61
2023-02-14T03:14:31.355Z,20.63
2023-02-14T03:15:35.634Z,20.64
2023-02-14T03:16:40.017Z,20.63
2023-02-14T03:17:44.179Z,20.65
2023-02-14T03:18:48.342Z,20.68
2023-02-14T03:19:52.489Z,20.69
2023-02-14T03:20:56.648Z,20.72
2023-02-14T03:22:01.506Z,20.73
2023-02-14T03:23:05.676Z,20.78
2023-02-14T03:24:09.850Z,20.79
2023-02-14T03:25:13.995Z,20.8
2023-02-14T03:26:18.198Z,20.81
2023-02-14T03:27:22.338Z,20.83
2023-02-14T03:28:26.520Z,20.87
2023-02-14T03:29:30.734Z,20.9
2023-02-14T03:30:34.858Z,20.94
2023-02-14T03:31:39.115Z,20.96
2023-02-14T03:32:43.726Z,21
2023-02-14T03:33:47.862Z,21.02
2023-02-14T03:34:51.995Z,20.99
2023-02-14T03:35:56.167Z,21.03
2023-02-14T03:37:00.330Z,21.01
2023-02-14T03:38:04.663Z,21.01
2023-02-14T03:39:08.811Z,20.98
2023-02-14T03:40:12.992Z,20.96
2023-02-14T03:41:17.156Z,20.97
2023-02-14T03:42:21.321Z,20.96
2023-02-14T03:43:25.474Z,20.96
2023-02-14T03:44:29.616Z,20.96
2023-02-14T03:45:33.799Z,20.92
2023-02-14T03:46:38.270Z,20.91
2023-02-14T03:47:42.672Z,20.91
2023-02-14T03:48:46.816Z,20.93
2023-02-14T03:49:51.012Z,20.96
2023-02-14T03:50:55.126Z,20.98
2023-02-14T03:51:59.667Z,21
2023-02-14T03:53:03.850Z,21
2023-02-14T03:54:07.981Z,21.06
2023-02-14T03:55:12.129Z,21.09
2023-02-14T03:56:16.274Z,21.1
2023-02-14T03:57:20.437Z,21.12
2023-02-14T03:59:42.895Z,21.19
2023-02-14T04:00:47.051Z,21.18
2023-02-14T04:01:51.218Z,21.23
2023-02-14T04:02:55.513Z,21.25
2023-02-14T04:03:59.643Z,21.26
2023-02-14T04:05:03.805Z,21.3
2023-02-14T04:06:07.936Z,21.34
2023-02-14T04:07:12.158Z,21.37
2023-02-14T04:08:16.342Z,21.4
2023-02-14T04:09:20.492Z,21.42
2023-02-14T04:10:24.678Z,21.44
2023-02-14T04:11:28.886Z,21.42
2023-02-14T04:12:37.880Z,21.49
2023-02-14T04:13:42.608Z,21.5
2023-02-14T04:14:49.069Z,21.51
2023-02-14T04:15:53.247Z,21.5
2023-02-14T04:16:57.766Z,21.5
2023-02-14T04:18:01.975Z,21.49
2023-02-14T04:19:06.145Z,21.47
2023-02-14T04:20:10.306Z,21.46
2023-02-14T04:21:14.455Z,21.44
2023-02-14T04:22:18.582Z,21.43
2023-02-14T04:23:22.715Z,21.41
2023-02-14T04:24:26.900Z,21.41
2023-02-14T04:25:31.025Z,21.4
2023-02-14T04:26:35.181Z,21.36
2023-02-14T04:27:39.326Z,21.37
2023-02-14T04:28:43.500Z,21.36
2023-02-14T04:29:47.679Z,21.39
2023-02-14T04:30:52.083Z,21.4
2023-02-14T04:31:56.535Z,21.42
2023-02-14T04:33:01.019Z,21.43
2023-02-14T04:34:05.160Z,21.48
2023-02-14T04:35:09.296Z,21.51
2023-02-14T04:36:13.476Z,21.53
2023-02-14T04:37:17.651Z,21.55
2023-02-14T04:38:21.766Z,21.59
2023-02-14T04:39:25.906Z,21.62
2023-02-14T04:40:30.064Z,21.65
2023-02-14T04:41:34.191Z,21.68
2023-02-14T04:42:38.473Z,21.69
2023-02-14T04:43:42.624Z,21.68
2023-02-14T04:44:46.755Z,21.7
2023-02-14T04:45:50.929Z,21.73
2023-02-14T04:46:55.115Z,21.69
2023-02-14T04:47:59.404Z,21.66
2023-02-14T04:49:03.569Z,21.67
2023-02-14T04:50:07.712Z,21.69
2023-02-14T04:51:11.855Z,21.66
2023-02-14T04:52:20.036Z,21.63
2023-02-14T04:53:28.002Z,21.58
2023-02-14T04:54:32.432Z,21.6
2023-02-14T04:55:36.557Z,21.59
2023-02-14T04:56:40.762Z,21.56
2023-02-14T04:57:44.922Z,21.53
2023-02-14T04:58:49.065Z,21.54
2023-02-14T04:59:53.219Z,21.54
2023-02-14T05:00:57.502Z,21.51
2023-02-14T05:02:02.900Z,21.5
2023-02-14T05:03:07.080Z,21.54
2023-02-14T05:04:11.302Z,21.55
2023-02-14T05:05:15.441Z,21.56
2023-02-14T05:06:19.611Z,21.61
2023-02-14T05:07:23.740Z,21.6
2023-02-14T05:08:27.951Z,21.66
2023-02-14T05:09:32.146Z,21.7
2023-02-14T05:10:36.314Z,21.73
2023-02-14T05:11:40.446Z,21.77
2023-02-14T05:12:44.591Z,21.78
2023-02-14T05:13:48.761Z,21.8
2023-02-14T05:14:52.957Z,21.83
2023-02-14T05:15:57.159Z,21.84
2023-02-14T05:17:01.437Z,21.86
2023-02-14T05:18:05.644Z,21.87
2023-02-14T05:19:09.926Z,21.86
2023-02-14T05:20:14.162Z,21.85
2023-02-14T05:21:18.302Z,21.84
2023-02-14T05:22:22.518Z,21.81
2023-02-14T05:23:26.692Z,21.81
2023-02-14T05:24:30.925Z,21.79
2023-02-14T05:25:35.056Z,21.78
2023-02-14T05:26:39.191Z,21.77
2023-02-14T05:27:43.372Z,21.74
2023-02-14T05:28:47.534Z,21.73
2023-02-14T05:29:51.730Z,21.75
2023-02-14T05:30:56.058Z,21.73
2023-02-14T05:32:01.258Z,21.73
2023-02-14T05:33:05.584Z,21.73
2023-02-14T05:34:09.748Z,21.77
2023-02-14T05:35:13.883Z,21.8
2023-02-14T05:36:18.012Z,21.78
2023-02-14T05:37:22.176Z,21.77
2023-02-14T05:38:26.278Z,21.74
2023-02-14T05:39:30.468Z,21.71
2023-02-14T05:40:34.621Z,21.71
2023-02-14T05:41:41.811Z,21.7
2023-02-14T05:42:45.995Z,21.67
2023-02-14T05:43:50.155Z,21.7
2023-02-14T05:44:54.511Z,21.67
2023-02-14T05:45:58.696Z,21.64
2023-02-14T05:47:03.069Z,21.63
2023-02-14T05:48:07.205Z,21.61
2023-02-14T05:49:11.339Z,21.6
2023-02-14T05:50:15.495Z,21.59
2023-02-14T05:51:19.658Z,21.57
2023-02-14T05:52:23.816Z,21.57
2023-02-14T05:53:27.988Z,21.55
2023-02-14T05:54:32.123Z,21.54
2023-02-14T05:55:36.302Z,21.51
2023-02-14T05:56:40.533Z,21.52
2023-02-14T05:57:44.847Z,21.51
2023-02-14T05:58:49.040Z,21.49
2023-02-14T05:59:53.192Z,21.46
2023-02-14T06:00:57.640Z,21.46
2023-02-14T06:02:02.895Z,21.42
2023-02-14T06:03:07.214Z,21.44
2023-02-14T06:04:11.371Z,21.42
2023-02-14T06:05:15.605Z,21.41
2023-02-14T06:06:19.743Z,21.39
2023-02-14T06:07:23.912Z,21.39
2023-02-14T06:08:28.044Z,21.38
2023-02-14T06:09:32.173Z,21.37
2023-02-14T06:10:36.332Z,21.36
2023-02-14T06:11:40.576Z,21.33
2023-02-14T06:12:44.756Z,21.33
2023-02-14T06:13:48.917Z,21.34
2023-02-14T06:14:53.058Z,21.34
2023-02-14T06:15:57.195Z,21.31
2023-02-14T06:17:01.439Z,21.32
2023-02-14T06:18:05.821Z,21.29
2023-02-14T06:19:10.009Z,21.24
2023-02-14T06:20:14.165Z,21.29
2023-02-14T06:21:18.317Z,21.29
2023-02-14T06:22:22.473Z,21.29
2023-02-14T06:23:26.643Z,21.28
2023-02-14T06:24:30.791Z,21.27
2023-02-14T06:25:34.969Z,21.23
2023-02-14T06:26:39.125Z,21.25
2023-02-14T06:27:43.250Z,21.25
2023-02-14T06:28:47.407Z,21.24
2023-02-14T06:29:51.588Z,21.23
2023-02-14T06:30:56.195Z,21.22
2023-02-14T06:32:01.322Z,21.22
2023-02-14T06:33:05.794Z,21.21
2023-02-14T06:34:09.937Z,21.21
2023-02-14T06:35:14.116Z,20.97
2023-02-14T06:36:18.292Z,21.19
2023-02-14T06:37:22.462Z,21.17
2023-02-14T06:38:26.733Z,21.19
2023-02-14T06:39:30.905Z,21.17
2023-02-14T06:40:35.084Z,21.18
2023-02-14T06:41:39.274Z,21.16
2023-02-14T06:42:43.519Z,21.17
2023-02-14T06:43:47.676Z,21.14
2023-02-14T06:44:51.971Z,21.14
2023-02-14T06:45:56.267Z,21.12
2023-02-14T06:47:00.684Z,21.13
2023-02-14T06:48:04.876Z,20.9
2023-02-14T06:49:09.051Z,21.1
2023-02-14T06:50:13.227Z,21.12
2023-02-14T06:51:17.485Z,21.11
2023-02-14T06:52:21.634Z,21.08
2023-02-14T06:53:25.770Z,21.1
2023-02-14T06:54:29.961Z,21.08
2023-02-14T06:55:34.111Z,21.07
2023-02-14T06:56:38.304Z,21.09
2023-02-14T06:57:42.617Z,21.06
2023-02-14T06:58:46.914Z,21.08
2023-02-14T06:59:51.136Z,21.08
2023-02-14T07:00:55.309Z,21.04
2023-02-14T07:01:59.712Z,21.05
2023-02-14T07:03:03.964Z,21.06
2023-02-14T07:04:08.236Z,21.03
2023-02-14T07:05:12.403Z,21.04
2023-02-14T07:06:16.539Z,21.03
2023-02-14T07:07:20.681Z,21.03
2023-02-14T07:08:26.272Z,21.01
2023-02-14T07:09:30.622Z,21.01
2023-02-14T07:10:34.824Z,21.01
2023-02-14T07:11:39.044Z,21
2023-02-14T07:12:43.187Z,21
2023-02-14T07:13:49.376Z,21
2023-02-14T07:14:53.708Z,20.98
2023-02-14T07:15:57.961Z,20.97
2023-02-14T07:17:02.309Z,20.97
2023-02-14T07:18:06.477Z,20.94
2023-02-14T07:19:10.612Z,20.95
2023-02-14T07:20:14.810Z,20.95
2023-02-14T07:21:18.995Z,20.95
2023-02-14T07:22:23.124Z,20.94
2023-02-14T07:23:27.299Z,20.94
2023-02-14T07:24:31.422Z,20.93
2023-02-14T07:25:35.646Z,20.93
2023-02-14T07:26:39.847Z,20.92
2023-02-14T07:27:44.005Z,20.92
2023-02-14T07:28:48.241Z,20.91
2023-02-14T07:29:52.419Z,20.91
2023-02-14T07:30:56.841Z,20.89
2023-02-14T07:32:02.321Z,20.91
2023-02-14T07:33:06.896Z,20.91
2023-02-14T07:34:11.062Z,20.89
2023-02-14T07:35:15.454Z,20.89
2023-02-14T07:36:19.671Z,20.87
2023-02-14T07:37:23.857Z,20.88
2023-02-14T07:38:28.002Z,20.86
2023-02-14T07:39:32.144Z,20.84
2023-02-14T07:40:36.299Z,20.85
2023-02-14T07:41:40.453Z,20.85
2023-02-14T07:42:44.678Z,20.84
2023-02-14T07:43:48.823Z,20.82
2023-02-14T07:44:53.012Z,20.81
2023-02-14T07:45:57.196Z,20.83
2023-02-14T07:47:01.486Z,20.81
2023-02-14T07:48:05.629Z,20.81
2023-02-14T07:49:09.769Z,20.82
2023-02-14T07:50:13.999Z,20.82
2023-02-14T07:51:18.159Z,20.82
2023-02-14T07:52:22.408Z,20.82
2023-02-14T07:53:26.596Z,20.79
2023-02-14T07:54:30.753Z,20.79
2023-02-14T07:55:34.967Z,20.79
2023-02-14T07:56:39.144Z,20.78
2023-02-14T07:57:43.306Z,20.8
2023-02-14T07:58:47.460Z,20.81
2023-02-14T07:59:51.599Z,20.79
2023-02-14T08:00:55.742Z,20.8
2023-02-14T08:02:00.754Z,20.8
2023-02-14T08:03:05.219Z,20.8
2023-02-14T08:04:09.415Z,20.8
2023-02-14T08:05:13.599Z,20.78
2023-02-14T08:06:18.025Z,20.79
2023-02-14T08:07:22.164Z,20.79
2023-02-14T08:08:26.408Z,20.79
2023-02-14T08:09:30.589Z,20.78
2023-02-14T08:10:34.735Z,20.77
2023-02-14T08:11:38.877Z,20.78
2023-02-14T08:12:43.032Z,20.77
2023-02-14T08:13:47.181Z,20.77
2023-02-14T08:14:51.348Z,20.78
2023-02-14T08:15:55.591Z,20.78
2023-02-14T08:16:59.926Z,20.77
2023-02-14T08:18:04.090Z,20.75
2023-02-14T08:19:08.233Z,20.77
2023-02-14T08:20:12.427Z,20.77
2023-02-14T08:21:16.576Z,20.76
2023-02-14T08:22:20.775Z,20.77
2023-02-14T08:23:24.900Z,20.77
2023-02-14T08:24:29.024Z,20.75
2023-02-14T08:25:33.212Z,20.77
2023-02-14T08:26:37.532Z,20.75
2023-02-14T08:27:41.744Z,20.77
2023-02-14T08:28:45.947Z,20.75
2023-02-14T08:29:50.136Z,20.74
2023-02-14T08:30:54.488Z,20.74
2023-02-14T08:31:58.999Z,20.76
2023-02-14T08:33:03.585Z,20.73
2023-02-14T08:34:07.704Z,20.75
2023-02-14T08:35:11.865Z,20.75
2023-02-14T08:36:16.044Z,20.75
2023-02-14T08:37:20.269Z,20.75
2023-02-14T08:38:24.420Z,20.73
2023-02-14T08:39:28.667Z,20.74
2023-02-14T08:40:32.891Z,20.74
2023-02-14T08:41:37.099Z,20.73
2023-02-14T08:42:41.229Z,20.76
2023-02-14T08:43:45.371Z,20.75
2023-02-14T08:44:49.501Z,20.74
2023-02-14T08:45:53.717Z,20.74
2023-02-14T08:46:58.046Z,20.74
2023-02-14T08:48:02.482Z,20.73
2023-02-14T08:49:06.758Z,20.73
2023-02-14T08:50:10.920Z,20.73
2023-02-14T08:51:15.208Z,20.73
2023-02-14T08:52:19.390Z,20.71
2023-02-14T08:53:23.502Z,20.71
2023-02-14T08:54:27.730Z,20.72
2023-02-14T08:55:31.866Z,20.71
2023-02-14T08:56:36.032Z,20.71
2023-02-14T08:57:40.169Z,20.72
2023-02-14T08:58:44.352Z,20.73
2023-02-14T08:59:48.541Z,20.72
2023-02-14T09:00:52.802Z,20.72
2023-02-14T09:01:57.100Z,20.72
2023-02-14T09:03:01.291Z,20.72
2023-02-14T09:04:05.535Z,20.7
2023-02-14T09:05:09.926Z,20.68
2023-02-14T09:06:14.177Z,20.69
2023-02-14T09:07:18.401Z,20.7
2023-02-14T09:08:22.601Z,20.68
2023-02-14T09:09:26.794Z,20.69
2023-02-14T09:10:31.120Z,20.69
2023-02-14T09:11:35.360Z,20.68
2023-02-14T09:12:39.495Z,20.69
2023-02-14T09:13:46.617Z,20.68
2023-02-14T09:14:50.756Z,20.68
2023-02-14T09:15:56.908Z,20.67
2023-02-14T09:17:01.501Z,20.68
2023-02-14T09:18:06.067Z,20.67
2023-02-14T09:19:10.246Z,20.64
2023-02-14T09:20:14.491Z,20.66
2023-02-14T09:21:18.732Z,20.65
2023-02-14T09:22:22.964Z,20.66
2023-02-14T09:23:27.312Z,20.52
2023-02-14T09:24:31.544Z,20.61
2023-02-14T09:25:35.728Z,20.54
2023-02-14T09:26:39.905Z,20.64
2023-02-14T09:27:44.158Z,20.64
2023-02-14T09:28:48.338Z,20.62
2023-02-14T09:29:52.546Z,20.63
2023-02-14T09:30:56.901Z,20.63
2023-02-14T09:32:02.443Z,20.6
2023-02-14T09:33:07.292Z,20.6
2023-02-14T09:34:11.847Z,20.6
2023-02-14T09:35:16.059Z,20.6
2023-02-14T09:36:20.244Z,20.41
2023-02-14T09:37:24.480Z,20.58
2023-02-14T09:38:28.649Z,20.59
2023-02-14T09:39:32.834Z,20.55
2023-02-14T09:40:36.998Z,20.58
2023-02-14T09:41:41.204Z,20.56
2023-02-14T09:42:45.426Z,20.56
2023-02-14T09:43:49.598Z,20.54
2023-02-14T09:44:53.825Z,20.55
2023-02-14T09:45:58.257Z,20.52
2023-02-14T09:47:02.740Z,20.54
2023-02-14T09:48:06.964Z,20.51
2023-02-14T09:49:11.307Z,20.51
2023-02-14T09:50:15.764Z,20.51
2023-02-14T09:51:19.976Z,20.53
2023-02-14T09:52:24.133Z,20.53
2023-02-14T09:53:28.322Z,20.51
2023-02-14T09:54:32.864Z,20.51
2023-02-14T09:55:37.208Z,20.53
2023-02-14T09:56:51.162Z,20.53
2023-02-14T09:57:55.668Z,20.51
2023-02-14T09:58:59.910Z,20.53
2023-02-14T10:00:04.365Z,20.54
2023-02-14T10:01:08.674Z,20.51
2023-02-14T10:02:13.199Z,20.53
2023-02-14T10:03:17.525Z,20.53
2023-02-14T10:04:21.684Z,20.53
2023-02-14T10:05:25.908Z,20.51
2023-02-14T10:06:30.065Z,20.53
2023-02-14T10:07:34.471Z,20.5
2023-02-14T10:08:38.704Z,20.48
2023-02-14T10:09:42.916Z,20.51
2023-02-14T10:10:47.155Z,20.49
2023-02-14T10:11:51.533Z,20.52
2023-02-14T10:12:55.718Z,20.5
2023-02-14T10:14:00.067Z,20.53
2023-02-14T10:15:04.282Z,20.44
2023-02-14T10:16:08.583Z,20.52
2023-02-14T10:17:12.901Z,20.5
2023-02-14T10:18:17.045Z,20.52
2023-02-14T10:19:21.195Z,20.52
2023-02-14T10:20:25.366Z,20.51
2023-02-14T10:21:30.219Z,20.52
2023-02-14T10:22:34.924Z,20.52
2023-02-14T10:23:39.091Z,20.52
2023-02-14T10:24:43.301Z,20.53
2023-02-14T10:25:47.494Z,20.51
2023-02-14T16:16:27.214Z,20.54
2023-02-14T16:17:31.369Z,20.66
2023-02-14T16:18:35.539Z,20.7
2023-02-14T16:19:39.655Z,20.71
2023-02-14T16:20:43.856Z,20.72
2023-02-14T16:21:47.997Z,20.68
2023-02-14T16:22:52.121Z,20.69
2023-02-14T16:23:56.273Z,20.72
2023-02-14T16:25:00.423Z,20.69
2023-02-14T16:26:04.597Z,20.71
2023-02-14T16:27:08.729Z,20.71
2023-02-14T16:28:12.880Z,20.71
2023-02-14T16:29:17.033Z,20.71
2023-02-14T16:30:21.235Z,20.69
2023-02-14T16:31:25.643Z,20.69
2023-02-14T16:32:30.252Z,20.65
2023-02-14T16:33:34.756Z,20.68
2023-02-14T16:34:38.881Z,20.68
2023-02-14T16:35:43.120Z,20.67
2023-02-14T16:36:47.255Z,20.67
2023-02-14T16:37:51.387Z,20.63
2023-02-14T16:38:55.510Z,20.63
2023-02-14T16:39:59.676Z,20.65
2023-02-14T16:41:04.053Z,20.63
2023-02-14T16:42:08.213Z,20.65
2023-02-14T16:43:12.369Z,20.36
2023-02-14T16:44:16.495Z,20.62
2023-02-14T16:45:20.641Z,20.6
2023-02-14T16:46:24.901Z,20.61
2023-02-14T16:47:29.217Z,20.64
2023-02-14T16:48:33.324Z,20.61
2023-02-14T16:49:37.454Z,20.61
2023-02-14T16:50:41.593Z,20.6
2023-02-14T16:51:45.732Z,20.62
2023-02-14T16:52:49.880Z,20.62
2023-02-14T16:53:54.041Z,20.61
2023-02-14T16:54:58.160Z,20.59
2023-02-14T16:56:02.315Z,20.59
2023-02-14T16:57:06.429Z,20.61
2023-02-14T16:58:10.532Z,20.6
2023-02-14T16:59:14.834Z,20.57
2023-02-14T17:00:19.025Z,20.6
2023-02-14T17:01:23.203Z,20.56
2023-02-14T17:02:27.497Z,20.59
2023-02-14T17:03:32.269Z,20.59
2023-02-14T17:04:36.377Z,20.59
2023-02-14T17:05:40.547Z,20.55
2023-02-14T17:06:44.683Z,20.58
2023-02-14T17:07:48.867Z,20.53
2023-02-14T17:08:53.045Z,20.57
2023-02-14T17:09:57.204Z,20.57
2023-02-14T17:11:01.576Z,20.56
2023-02-14T17:12:06.146Z,20.61
2023-02-14T17:13:10.310Z,20.62
2023-02-14T17:14:14.471Z,20.6
2023-02-14T17:15:18.588Z,20.62
2023-02-14T17:16:22.753Z,20.65
2023-02-14T17:17:26.919Z,20.69
2023-02-14T17:18:31.083Z,20.68
2023-02-14T17:19:35.296Z,20.72
2023-02-14T17:20:39.486Z,20.71
2023-02-14T17:21:43.752Z,20.72
2023-02-14T17:22:47.968Z,20.76
2023-02-14T17:23:52.175Z,20.76
2023-02-14T17:24:57.205Z,20.8
2023-02-14T17:26:01.518Z,20.76
2023-02-14T17:27:05.681Z,20.8
2023-02-14T17:28:09.816Z,20.8
2023-02-14T17:29:14.020Z,20.8
2023-02-14T17:30:18.181Z,20.79
2023-02-14T17:31:22.593Z,20.8
2023-02-14T17:32:27.167Z,20.79
2023-02-14T17:33:31.538Z,20.75
2023-02-14T17:34:35.734Z,20.75
2023-02-14T17:35:40.104Z,20.78
2023-02-14T17:36:44.268Z,20.75
2023-02-14T17:37:48.404Z,20.78
2023-02-14T17:38:52.567Z,20.73
2023-02-14T17:39:56.710Z,20.76
2023-02-14T17:41:01.102Z,20.76
2023-02-14T17:42:06.016Z,20.77
2023-02-14T17:43:11.763Z,20.63
2023-02-14T17:44:16.114Z,20.78
2023-02-14T17:45:20.291Z,20.79
2023-02-14T17:46:24.429Z,20.77
2023-02-14T17:47:28.646Z,20.8
2023-02-14T17:48:32.782Z,20.81
2023-02-14T17:49:36.949Z,20.84
2023-02-14T17:50:41.100Z,20.87
2023-02-14T17:51:45.255Z,20.88
2023-02-14T17:52:49.457Z,20.91
2023-02-14T17:53:53.597Z,20.95
2023-02-14T17:55:00.275Z,20.97
2023-02-14T17:56:04.424Z,20.98
2023-02-14T17:57:08.599Z,20.99
2023-02-14T17:58:12.755Z,21.01
2023-02-14T17:59:16.958Z,21.04
2023-02-14T18:00:21.108Z,21.06
2023-02-14T18:01:25.321Z,21.08
2023-02-14T18:02:29.771Z,21.08
2023-02-14T18:03:34.072Z,21.13
2023-02-14T18:04:38.208Z,21.13
2023-02-14T18:05:42.393Z,21.13
2023-02-14T18:06:46.644Z,21.13
2023-02-14T18:07:50.759Z,21.13
2023-02-14T18:08:54.884Z,21.1
2023-02-14T18:09:59.234Z,21.12
2023-02-14T18:11:03.490Z,21.09
2023-02-14T18:12:07.719Z,21.11
2023-02-14T18:13:17.653Z,21.08
2023-02-14T18:14:21.826Z,21.12
2023-02-14T18:15:25.974Z,21.11
2023-02-14T18:16:30.181Z,21.09
2023-02-14T18:17:34.556Z,21.06
2023-02-14T18:18:38.688Z,21.09
2023-02-14T18:19:42.839Z,21.1
2023-02-14T18:20:46.977Z,21.07
2023-02-14T18:21:51.093Z,21.11
2023-02-14T18:22:55.260Z,21.14
2023-02-14T18:23:59.392Z,21.11
2023-02-14T18:25:03.565Z,21.15
2023-02-14T18:26:07.692Z,21.13
2023-02-14T18:27:11.816Z,21.18
2023-02-14T18:28:15.964Z,21.19
2023-02-14T18:29:20.105Z,21.19
2023-02-14T18:30:24.262Z,21.24
2023-02-14T18:31:28.672Z,21.23
2023-02-14T18:32:33.047Z,21.28
2023-02-14T18:33:37.214Z,21.3
2023-02-14T18:34:41.346Z,21.32
2023-02-14T18:35:45.525Z,21.36
2023-02-14T18:36:49.653Z,21.36
2023-02-14T18:37:54.029Z,21.36
2023-02-14T18:38:58.181Z,21.4
2023-02-14T18:40:02.370Z,21.39
2023-02-14T18:41:06.511Z,21.43
2023-02-14T18:42:10.640Z,21.42
2023-02-14T18:43:14.833Z,21.41
2023-02-14T18:44:18.968Z,21.41
2023-02-14T18:45:23.133Z,21.37
2023-02-14T18:46:27.337Z,21.4
2023-02-14T18:47:31.525Z,21.36
2023-02-14T18:48:35.796Z,21.35
2023-02-14T18:49:40.046Z,21.33
2023-02-14T18:50:44.318Z,21.35
2023-02-14T18:51:48.526Z,21.34
2023-02-14T18:52:52.771Z,21.33
2023-02-14T18:53:57.060Z,21.33
2023-02-14T18:55:01.331Z,21.31
2023-02-14T18:56:05.469Z,21.34
2023-02-14T18:57:09.624Z,21.35
2023-02-14T18:58:13.777Z,21.36
2023-02-14T18:59:17.962Z,21.33
2023-02-14T19:00:22.155Z,21.42
2023-02-14T19:01:26.385Z,21.4
2023-02-14T19:02:30.652Z,21.1
2023-02-14T19:03:34.995Z,21.48
2023-02-14T19:04:39.115Z,21.5
2023-02-14T19:05:43.257Z,21.52
2023-02-14T19:06:47.477Z,21.54
2023-02-14T19:07:51.613Z,21.57
2023-02-14T19:08:55.748Z,21.57
2023-02-14T19:10:00.207Z,21.58
2023-02-14T19:11:04.357Z,21.58
2023-02-14T19:12:08.561Z,21.61
2023-02-14T19:13:12.699Z,21.6
2023-02-14T19:14:16.838Z,21.57
2023-02-14T19:15:21.065Z,21.6
2023-02-14T19:16:25.309Z,21.55
2023-02-14T19:17:29.688Z,21.58
2023-02-14T19:18:34.332Z,21.52
2023-02-14T19:19:38.548Z,21.51
2023-02-14T19:20:42.890Z,21.51
2023-02-14T19:21:47.073Z,21.48
2023-02-14T19:22:51.961Z,21.5
2023-02-14T19:23:56.097Z,21.5
2023-02-14T19:25:00.282Z,21.47
2023-02-14T19:26:05.991Z,21.49
2023-02-14T19:27:10.211Z,21.53
2023-02-14T19:28:14.346Z,21.56
2023-02-14T19:29:18.471Z,21.6
2023-02-14T19:30:22.679Z,21.59
2023-02-14T19:31:27.106Z,21.58
2023-02-14T19:32:31.629Z,21.64
2023-02-14T19:33:35.734Z,21.67
2023-02-14T19:34:39.879Z,21.69
2023-02-14T19:35:44.015Z,21.72
2023-02-14T19:36:48.235Z,21.74
2023-02-14T19:37:52.623Z,21.78
2023-02-14T19:38:56.754Z,21.74
2023-02-14T19:40:00.917Z,21.75
2023-02-14T19:41:05.145Z,21.77
2023-02-14T19:42:09.329Z,21.78